sensor_id;sensor_type;location;lat;lon;timestamp;P1;durP1;ratioP1;P2;durP2;ratioP2
50379;SDS011;37474;59.468;18.040;2023-05-10T00:01:23;11.80;;;5.38;;
50379;SDS011;37474;59.468;18.040;2023-05-10T00:03:51;9.77;;;5.00;;
50379;SDS011;37474;59.468;18.040;2023-05-10T00:06:19;8.63;;;4.83;;
50379;SDS011;37474;59.468;18.040;2023-05-10T00:08:47;11.37;;;5.53;;
50379;SDS011;37474;59.468;18.040;2023-05-10T00:11:15;10.17;;;5.53;;
50379;SDS011;37474;59.468;18.040;2023-05-10T00:16:15;10.67;;;5.43;;
50379;SDS011;37474;59.468;18.040;2023-05-10T00:18:43;8.23;;;4.83;;
50379;SDS011;37474;59.468;18.040;2023-05-10T00:21:11;12.10;;;6.10;;
50379;SDS011;37474;59.468;18.040;2023-05-10T00:23:39;11.13;;;5.33;;
50379;SDS011;37474;59.468;18.040;2023-05-10T00:26:07;11.13;;;5.33;;
50379;SDS011;37474;59.468;18.040;2023-05-10T00:28:35;10.20;;;5.30;;
50379;SDS011;37474;59.468;18.040;2023-05-10T00:31:03;9.03;;;5.53;;
50379;SDS011;37474;59.468;18.040;2023-05-10T00:33:33;10.03;;;5.27;;
50379;SDS011;37474;59.468;18.040;2023-05-10T00:36:01;10.10;;;5.40;;
50379;SDS011;37474;59.468;18.040;2023-05-10T00:38:29;11.87;;;5.63;;
50379;SDS011;37474;59.468;18.040;2023-05-10T00:40:57;12.80;;;5.73;;
50379;SDS011;37474;59.468;18.040;2023-05-10T00:43:25;14.10;;;5.33;;
50379;SDS011;37474;59.468;18.040;2023-05-10T00:45:53;9.17;;;5.00;;
50379;SDS011;37474;59.468;18.040;2023-05-10T00:48:22;9.33;;;5.70;;
50379;SDS011;37474;59.468;18.040;2023-05-10T00:50:51;11.53;;;5.40;;
50379;SDS011;37474;59.468;18.040;2023-05-10T00:53:19;10.98;;;5.57;;
50379;SDS011;37474;59.468;18.040;2023-05-10T00:55:48;10.10;;;5.60;;
50379;SDS011;37474;59.468;18.040;2023-05-10T00:58:17;9.93;;;5.10;;
50379;SDS011;37474;59.468;18.040;2023-05-10T01:00:45;11.83;;;5.27;;
50379;SDS011;37474;59.468;18.040;2023-05-10T01:03:14;11.53;;;5.10;;
50379;SDS011;37474;59.468;18.040;2023-05-10T01:05:43;9.97;;;5.00;;
50379;SDS011;37474;59.468;18.040;2023-05-10T01:08:13;7.50;;;4.63;;
50379;SDS011;37474;59.468;18.040;2023-05-10T01:10:41;14.10;;;5.70;;
50379;SDS011;37474;59.468;18.040;2023-05-10T01:13:10;11.13;;;5.33;;
50379;SDS011;37474;59.468;18.040;2023-05-10T01:15:39;11.23;;;4.97;;
50379;SDS011;37474;59.468;18.040;2023-05-10T01:18:08;9.87;;;5.50;;
50379;SDS011;37474;59.468;18.040;2023-05-10T01:20:39;9.40;;;5.63;;
50379;SDS011;37474;59.468;18.040;2023-05-10T01:23:30;9.07;;;5.03;;
50379;SDS011;37474;59.468;18.040;2023-05-10T01:26:16;8.53;;;5.20;;
50379;SDS011;37474;59.468;18.040;2023-05-10T01:29:11;12.07;;;5.20;;
50379;SDS011;37474;59.468;18.040;2023-05-10T01:34:53;15.93;;;5.27;;
50379;SDS011;37474;59.468;18.040;2023-05-10T01:37:29;11.57;;;5.23;;
50379;SDS011;37474;59.468;18.040;2023-05-10T01:40:07;7.73;;;4.70;;
50379;SDS011;37474;59.468;18.040;2023-05-10T01:42:43;7.63;;;4.73;;
50379;SDS011;37474;59.468;18.040;2023-05-10T01:45:19;9.20;;;4.50;;
50379;SDS011;37474;59.468;18.040;2023-05-10T01:47:56;10.80;;;5.20;;
50379;SDS011;37474;59.468;18.040;2023-05-10T01:50:30;10.77;;;4.83;;
50379;SDS011;37474;59.468;18.040;2023-05-10T01:53:00;7.63;;;5.10;;
50379;SDS011;37474;59.468;18.040;2023-05-10T01:55:30;9.65;;;4.95;;
50379;SDS011;37474;59.468;18.040;2023-05-10T01:58:03;7.63;;;4.90;;
50379;SDS011;37474;59.468;18.040;2023-05-10T02:00:34;6.97;;;4.53;;
50379;SDS011;37474;59.468;18.040;2023-05-10T02:03:06;14.68;;;5.32;;
50379;SDS011;37474;59.468;18.040;2023-05-10T02:05:36;6.93;;;4.87;;
50379;SDS011;37474;59.468;18.040;2023-05-10T02:08:05;12.20;;;5.67;;
50379;SDS011;37474;59.468;18.040;2023-05-10T02:10:34;9.70;;;5.20;;
50379;SDS011;37474;59.468;18.040;2023-05-10T02:13:03;8.10;;;4.93;;
50379;SDS011;37474;59.468;18.040;2023-05-10T02:15:33;8.53;;;5.40;;
50379;SDS011;37474;59.468;18.040;2023-05-10T02:18:03;7.68;;;4.90;;
50379;SDS011;37474;59.468;18.040;2023-05-10T02:20:34;8.68;;;5.40;;
50379;SDS011;37474;59.468;18.040;2023-05-10T02:23:02;11.43;;;5.93;;
50379;SDS011;37474;59.468;18.040;2023-05-10T02:25:31;10.40;;;5.47;;
50379;SDS011;37474;59.468;18.040;2023-05-10T02:28:01;8.80;;;5.17;;
50379;SDS011;37474;59.468;18.040;2023-05-10T02:30:31;8.90;;;4.95;;
50379;SDS011;37474;59.468;18.040;2023-05-10T02:33:01;8.07;;;5.38;;
50379;SDS011;37474;59.468;18.040;2023-05-10T02:38:01;11.33;;;5.80;;
50379;SDS011;37474;59.468;18.040;2023-05-10T02:40:30;9.68;;;5.68;;
50379;SDS011;37474;59.468;18.040;2023-05-10T02:42:59;9.18;;;5.25;;
50379;SDS011;37474;59.468;18.040;2023-05-10T02:45:30;6.63;;;4.85;;
50379;SDS011;37474;59.468;18.040;2023-05-10T02:47:59;7.20;;;4.97;;
50379;SDS011;37474;59.468;18.040;2023-05-10T02:50:28;9.43;;;5.07;;
50379;SDS011;37474;59.468;18.040;2023-05-10T02:53:01;9.75;;;5.70;;
50379;SDS011;37474;59.468;18.040;2023-05-10T02:55:36;10.40;;;5.87;;
50379;SDS011;37474;59.468;18.040;2023-05-10T02:58:08;9.57;;;5.53;;
50379;SDS011;37474;59.468;18.040;2023-05-10T03:00:36;10.17;;;5.80;;
50379;SDS011;37474;59.468;18.040;2023-05-10T03:03:04;11.13;;;5.50;;
50379;SDS011;37474;59.468;18.040;2023-05-10T03:05:33;10.80;;;5.47;;
50379;SDS011;37474;59.468;18.040;2023-05-10T03:08:02;14.30;;;5.50;;
50379;SDS011;37474;59.468;18.040;2023-05-10T03:10:32;13.10;;;5.87;;
50379;SDS011;37474;59.468;18.040;2023-05-10T03:13:06;10.63;;;5.20;;
50379;SDS011;37474;59.468;18.040;2023-05-10T03:15:42;11.00;;;5.57;;
50379;SDS011;37474;59.468;18.040;2023-05-10T03:18:18;7.90;;;5.27;;
50379;SDS011;37474;59.468;18.040;2023-05-10T03:20:51;11.47;;;6.30;;
50379;SDS011;37474;59.468;18.040;2023-05-10T03:23:27;7.77;;;5.20;;
50379;SDS011;37474;59.468;18.040;2023-05-10T03:26:01;9.40;;;5.53;;
50379;SDS011;37474;59.468;18.040;2023-05-10T03:28:32;10.90;;;5.50;;
50379;SDS011;37474;59.468;18.040;2023-05-10T03:31:01;11.00;;;6.37;;
50379;SDS011;37474;59.468;18.040;2023-05-10T03:33:31;6.38;;;4.80;;
50379;SDS011;37474;59.468;18.040;2023-05-10T03:35:59;9.00;;;4.70;;
50379;SDS011;37474;59.468;18.040;2023-05-10T03:38:29;14.23;;;5.30;;
50379;SDS011;37474;59.468;18.040;2023-05-10T03:40:57;9.10;;;4.93;;
50379;SDS011;37474;59.468;18.040;2023-05-10T03:43:27;11.47;;;4.60;;
50379;SDS011;37474;59.468;18.040;2023-05-10T03:45:55;11.43;;;5.10;;
50379;SDS011;37474;59.468;18.040;2023-05-10T03:48:23;10.97;;;5.10;;
50379;SDS011;37474;59.468;18.040;2023-05-10T03:50:51;7.33;;;4.30;;
50379;SDS011;37474;59.468;18.040;2023-05-10T03:53:19;7.40;;;5.00;;
50379;SDS011;37474;59.468;18.040;2023-05-10T03:55:51;9.40;;;4.90;;
50379;SDS011;37474;59.468;18.040;2023-05-10T03:58:19;10.03;;;5.60;;
50379;SDS011;37474;59.468;18.040;2023-05-10T04:00:48;7.87;;;4.67;;
50379;SDS011;37474;59.468;18.040;2023-05-10T04:03:19;8.70;;;4.43;;
50379;SDS011;37474;59.468;18.040;2023-05-10T04:05:47;8.57;;;4.70;;
50379;SDS011;37474;59.468;18.040;2023-05-10T04:08:15;8.27;;;4.63;;
50379;SDS011;37474;59.468;18.040;2023-05-10T04:10:43;8.57;;;4.60;;
50379;SDS011;37474;59.468;18.040;2023-05-10T04:13:13;6.77;;;4.27;;
50379;SDS011;37474;59.468;18.040;2023-05-10T04:15:41;6.50;;;4.00;;
50379;SDS011;37474;59.468;18.040;2023-05-10T04:18:10;8.87;;;4.40;;
50379;SDS011;37474;59.468;18.040;2023-05-10T04:20:38;7.03;;;4.60;;
50379;SDS011;37474;59.468;18.040;2023-05-10T04:23:06;6.20;;;4.37;;
50379;SDS011;37474;59.468;18.040;2023-05-10T04:25:34;8.67;;;4.43;;
50379;SDS011;37474;59.468;18.040;2023-05-10T04:28:03;7.17;;;4.60;;
50379;SDS011;37474;59.468;18.040;2023-05-10T04:30:33;6.80;;;4.30;;
50379;SDS011;37474;59.468;18.040;2023-05-10T04:33:01;7.77;;;4.73;;
50379;SDS011;37474;59.468;18.040;2023-05-10T04:35:29;8.60;;;4.30;;
50379;SDS011;37474;59.468;18.040;2023-05-10T04:37:57;12.30;;;4.53;;
50379;SDS011;37474;59.468;18.040;2023-05-10T04:40:25;6.13;;;3.90;;
50379;SDS011;37474;59.468;18.040;2023-05-10T04:42:53;8.50;;;4.30;;
50379;SDS011;37474;59.468;18.040;2023-05-10T04:45:21;8.63;;;3.93;;
50379;SDS011;37474;59.468;18.040;2023-05-10T04:47:51;9.07;;;4.40;;
50379;SDS011;37474;59.468;18.040;2023-05-10T04:50:19;7.43;;;4.20;;
50379;SDS011;37474;59.468;18.040;2023-05-10T04:52:47;7.23;;;4.20;;
50379;SDS011;37474;59.468;18.040;2023-05-10T04:55:15;9.20;;;4.10;;
50379;SDS011;37474;59.468;18.040;2023-05-10T04:57:43;7.77;;;3.63;;
50379;SDS011;37474;59.468;18.040;2023-05-10T05:00:12;9.00;;;3.70;;
50379;SDS011;37474;59.468;18.040;2023-05-10T05:02:42;9.03;;;4.00;;
50379;SDS011;37474;59.468;18.040;2023-05-10T05:05:15;6.77;;;3.90;;
50379;SDS011;37474;59.468;18.040;2023-05-10T05:07:45;7.22;;;3.58;;
50379;SDS011;37474;59.468;18.040;2023-05-10T05:10:13;8.93;;;3.75;;
50379;SDS011;37474;59.468;18.040;2023-05-10T05:12:41;9.63;;;3.70;;
50379;SDS011;37474;59.468;18.040;2023-05-10T05:15:10;9.20;;;3.77;;
50379;SDS011;37474;59.468;18.040;2023-05-10T05:17:38;10.23;;;3.80;;
50379;SDS011;37474;59.468;18.040;2023-05-10T05:20:07;5.30;;;3.37;;
50379;SDS011;37474;59.468;18.040;2023-05-10T05:22:37;7.43;;;3.30;;
50379;SDS011;37474;59.468;18.040;2023-05-10T05:25:05;8.65;;;3.58;;
50379;SDS011;37474;59.468;18.040;2023-05-10T05:27:34;5.37;;;3.20;;
50379;SDS011;37474;59.468;18.040;2023-05-10T05:30:02;8.20;;;3.80;;
50379;SDS011;37474;59.468;18.040;2023-05-10T05:32:33;6.07;;;3.33;;
50379;SDS011;37474;59.468;18.040;2023-05-10T05:35:02;11.03;;;3.50;;
50379;SDS011;37474;59.468;18.040;2023-05-10T05:37:30;8.03;;;3.60;;
50379;SDS011;37474;59.468;18.040;2023-05-10T05:39:59;7.57;;;3.40;;
50379;SDS011;37474;59.468;18.040;2023-05-10T05:44:56;7.63;;;3.20;;
50379;SDS011;37474;59.468;18.040;2023-05-10T05:47:24;5.27;;;3.20;;
50379;SDS011;37474;59.468;18.040;2023-05-10T05:49:52;6.90;;;3.40;;
50379;SDS011;37474;59.468;18.040;2023-05-10T05:52:20;7.37;;;3.53;;
50379;SDS011;37474;59.468;18.040;2023-05-10T05:54:48;8.10;;;3.30;;
50379;SDS011;37474;59.468;18.040;2023-05-10T05:57:18;9.73;;;3.40;;
50379;SDS011;37474;59.468;18.040;2023-05-10T05:59:46;7.87;;;3.10;;
50379;SDS011;37474;59.468;18.040;2023-05-10T06:02:14;6.00;;;3.20;;
50379;SDS011;37474;59.468;18.040;2023-05-10T06:04:43;8.57;;;3.33;;
50379;SDS011;37474;59.468;18.040;2023-05-10T06:07:11;8.90;;;3.07;;
50379;SDS011;37474;59.468;18.040;2023-05-10T06:09:38;5.33;;;3.43;;
50379;SDS011;37474;59.468;18.040;2023-05-10T06:12:07;10.40;;;3.20;;
50379;SDS011;37474;59.468;18.040;2023-05-10T06:14:36;7.73;;;3.10;;
50379;SDS011;37474;59.468;18.040;2023-05-10T06:17:04;6.90;;;3.17;;
50379;SDS011;37474;59.468;18.040;2023-05-10T06:19:36;9.97;;;3.27;;
50379;SDS011;37474;59.468;18.040;2023-05-10T06:22:04;6.97;;;3.00;;
50379;SDS011;37474;59.468;18.040;2023-05-10T06:24:32;7.72;;;3.20;;
50379;SDS011;37474;59.468;18.040;2023-05-10T06:27:00;8.55;;;3.47;;
50379;SDS011;37474;59.468;18.040;2023-05-10T06:29:28;13.65;;;3.83;;
50379;SDS011;37474;59.468;18.040;2023-05-10T06:31:57;8.68;;;3.40;;
50379;SDS011;37474;59.468;18.040;2023-05-10T06:34:26;11.05;;;3.90;;
50379;SDS011;37474;59.468;18.040;2023-05-10T06:36:54;13.50;;;3.63;;
50379;SDS011;37474;59.468;18.040;2023-05-10T06:39:22;8.60;;;3.45;;
50379;SDS011;37474;59.468;18.040;2023-05-10T06:41:50;9.88;;;3.60;;
50379;SDS011;37474;59.468;18.040;2023-05-10T06:44:18;11.60;;;3.63;;
50379;SDS011;37474;59.468;18.040;2023-05-10T06:46:46;10.90;;;3.55;;
50379;SDS011;37474;59.468;18.040;2023-05-10T06:49:16;8.88;;;3.13;;
50379;SDS011;37474;59.468;18.040;2023-05-10T06:51:44;6.68;;;3.00;;
50379;SDS011;37474;59.468;18.040;2023-05-10T06:54:12;11.27;;;3.10;;
50379;SDS011;37474;59.468;18.040;2023-05-10T06:56:40;9.32;;;3.03;;
50379;SDS011;37474;59.468;18.040;2023-05-10T06:59:08;10.35;;;3.20;;
50379;SDS011;37474;59.468;18.040;2023-05-10T07:01:37;8.35;;;3.05;;
50379;SDS011;37474;59.468;18.040;2023-05-10T07:04:05;10.68;;;2.90;;
50379;SDS011;37474;59.468;18.040;2023-05-10T07:06:35;8.77;;;3.03;;
50379;SDS011;37474;59.468;18.040;2023-05-10T07:09:03;8.63;;;3.27;;
50379;SDS011;37474;59.468;18.040;2023-05-10T07:11:31;12.20;;;3.10;;
50379;SDS011;37474;59.468;18.040;2023-05-10T07:13:59;13.63;;;3.20;;
50379;SDS011;37474;59.468;18.040;2023-05-10T07:16:27;10.07;;;3.08;;
50379;SDS011;37474;59.468;18.040;2023-05-10T07:18:55;11.55;;;2.88;;
50379;SDS011;37474;59.468;18.040;2023-05-10T07:21:23;11.32;;;3.22;;
50379;SDS011;37474;59.468;18.040;2023-05-10T07:23:56;8.05;;;3.20;;
50379;SDS011;37474;59.468;18.040;2023-05-10T07:26:24;10.00;;;3.28;;
50379;SDS011;37474;59.468;18.040;2023-05-10T07:28:52;9.23;;;3.00;;
50379;SDS011;37474;59.468;18.040;2023-05-10T07:31:20;8.60;;;3.25;;
50379;SDS011;37474;59.468;18.040;2023-05-10T07:33:48;5.88;;;2.72;;
50379;SDS011;37474;59.468;18.040;2023-05-10T07:36:16;5.93;;;3.10;;
50379;SDS011;37474;59.468;18.040;2023-05-10T07:38:44;9.63;;;3.08;;
50379;SDS011;37474;59.468;18.040;2023-05-10T07:41:14;6.50;;;2.72;;
50379;SDS011;37474;59.468;18.040;2023-05-10T07:43:42;7.43;;;2.97;;
50379;SDS011;37474;59.468;18.040;2023-05-10T07:46:10;7.75;;;2.83;;
50379;SDS011;37474;59.468;18.040;2023-05-10T07:48:38;7.20;;;3.28;;
50379;SDS011;37474;59.468;18.040;2023-05-10T07:51:06;7.95;;;3.10;;
50379;SDS011;37474;59.468;18.040;2023-05-10T07:53:35;14.30;;;3.47;;
50379;SDS011;37474;59.468;18.040;2023-05-10T07:59:01;7.68;;;2.92;;
50379;SDS011;37474;59.468;18.040;2023-05-10T08:01:30;6.90;;;3.03;;
50379;SDS011;37474;59.468;18.040;2023-05-10T08:03:59;9.68;;;2.92;;
50379;SDS011;37474;59.468;18.040;2023-05-10T08:06:28;9.55;;;2.90;;
50379;SDS011;37474;59.468;18.040;2023-05-10T08:08:56;7.95;;;3.15;;
50379;SDS011;37474;59.468;18.040;2023-05-10T08:11:24;7.72;;;2.83;;
50379;SDS011;37474;59.468;18.040;2023-05-10T08:13:54;6.30;;;2.97;;
50379;SDS011;37474;59.468;18.040;2023-05-10T08:16:23;6.25;;;3.20;;
50379;SDS011;37474;59.468;18.040;2023-05-10T08:18:51;9.40;;;3.20;;
50379;SDS011;37474;59.468;18.040;2023-05-10T08:21:21;7.28;;;3.20;;
50379;SDS011;37474;59.468;18.040;2023-05-10T08:23:49;7.95;;;2.92;;
50379;SDS011;37474;59.468;18.040;2023-05-10T08:26:17;10.10;;;2.85;;
50379;SDS011;37474;59.468;18.040;2023-05-10T08:28:47;9.27;;;2.75;;
50379;SDS011;37474;59.468;18.040;2023-05-10T08:31:15;7.95;;;3.00;;
50379;SDS011;37474;59.468;18.040;2023-05-10T08:33:45;4.90;;;2.67;;
50379;SDS011;37474;59.468;18.040;2023-05-10T08:36:13;12.57;;;3.45;;
50379;SDS011;37474;59.468;18.040;2023-05-10T08:38:46;7.05;;;3.30;;
50379;SDS011;37474;59.468;18.040;2023-05-10T08:41:15;8.05;;;2.90;;
50379;SDS011;37474;59.468;18.040;2023-05-10T08:43:44;7.65;;;3.00;;
50379;SDS011;37474;59.468;18.040;2023-05-10T08:46:13;4.07;;;2.58;;
50379;SDS011;37474;59.468;18.040;2023-05-10T08:48:46;4.63;;;2.75;;
50379;SDS011;37474;59.468;18.040;2023-05-10T08:51:16;6.20;;;2.67;;
50379;SDS011;37474;59.468;18.040;2023-05-10T08:53:46;5.55;;;2.67;;
50379;SDS011;37474;59.468;18.040;2023-05-10T08:56:15;6.30;;;3.00;;
50379;SDS011;37474;59.468;18.040;2023-05-10T08:58:44;5.63;;;3.33;;
50379;SDS011;37474;59.468;18.040;2023-05-10T09:01:12;7.88;;;3.08;;
50379;SDS011;37474;59.468;18.040;2023-05-10T09:06:12;7.47;;;3.05;;
50379;SDS011;37474;59.468;18.040;2023-05-10T09:08:40;5.75;;;2.80;;
50379;SDS011;37474;59.468;18.040;2023-05-10T09:11:09;9.98;;;3.05;;
50379;SDS011;37474;59.468;18.040;2023-05-10T09:13:38;6.57;;;2.70;;
50379;SDS011;37474;59.468;18.040;2023-05-10T09:16:09;5.45;;;3.05;;
50379;SDS011;37474;59.468;18.040;2023-05-10T09:18:47;3.88;;;2.50;;
50379;SDS011;37474;59.468;18.040;2023-05-10T09:21:17;5.05;;;2.70;;
50379;SDS011;37474;59.468;18.040;2023-05-10T09:23:46;4.63;;;2.58;;
50379;SDS011;37474;59.468;18.040;2023-05-10T09:26:16;5.95;;;2.75;;
50379;SDS011;37474;59.468;18.040;2023-05-10T09:28:50;5.30;;;2.88;;
50379;SDS011;37474;59.468;18.040;2023-05-10T09:31:19;3.85;;;2.83;;
50379;SDS011;37474;59.468;18.040;2023-05-10T09:33:48;5.53;;;2.40;;
50379;SDS011;37474;59.468;18.040;2023-05-10T09:36:18;7.43;;;2.80;;
50379;SDS011;37474;59.468;18.040;2023-05-10T09:38:47;10.40;;;2.78;;
50379;SDS011;37474;59.468;18.040;2023-05-10T09:41:18;6.80;;;2.97;;
50379;SDS011;37474;59.468;18.040;2023-05-10T09:43:47;8.27;;;2.90;;
50379;SDS011;37474;59.468;18.040;2023-05-10T09:46:15;6.40;;;2.60;;
50379;SDS011;37474;59.468;18.040;2023-05-10T09:48:44;10.55;;;2.78;;
50379;SDS011;37474;59.468;18.040;2023-05-10T09:51:21;7.65;;;3.08;;
50379;SDS011;37474;59.468;18.040;2023-05-10T09:54:08;7.38;;;2.63;;
50379;SDS011;37474;59.468;18.040;2023-05-10T09:56:37;7.47;;;2.28;;
50379;SDS011;37474;59.468;18.040;2023-05-10T09:59:07;6.47;;;2.65;;
50379;SDS011;37474;59.468;18.040;2023-05-10T10:01:37;8.55;;;2.90;;
50379;SDS011;37474;59.468;18.040;2023-05-10T10:04:06;5.63;;;2.53;;
50379;SDS011;37474;59.468;18.040;2023-05-10T10:06:36;7.72;;;2.72;;
50379;SDS011;37474;59.468;18.040;2023-05-10T10:09:05;4.50;;;2.60;;
50379;SDS011;37474;59.468;18.040;2023-05-10T10:11:34;5.05;;;2.20;;
50379;SDS011;37474;59.468;18.040;2023-05-10T10:14:03;10.43;;;2.80;;
50379;SDS011;37474;59.468;18.040;2023-05-10T10:16:32;6.82;;;2.53;;
50379;SDS011;37474;59.468;18.040;2023-05-10T10:19:11;4.10;;;2.20;;
50379;SDS011;37474;59.468;18.040;2023-05-10T10:21:41;4.88;;;2.80;;
50379;SDS011;37474;59.468;18.040;2023-05-10T10:24:09;5.97;;;2.75;;
50379;SDS011;37474;59.468;18.040;2023-05-10T10:26:37;7.15;;;2.60;;
50379;SDS011;37474;59.468;18.040;2023-05-10T10:29:10;6.53;;;2.55;;
50379;SDS011;37474;59.468;18.040;2023-05-10T10:31:47;8.32;;;2.75;;
50379;SDS011;37474;59.468;18.040;2023-05-10T10:34:25;4.70;;;2.78;;
50379;SDS011;37474;59.468;18.040;2023-05-10T10:36:56;5.40;;;2.40;;
50379;SDS011;37474;59.468;18.040;2023-05-10T10:39:25;5.43;;;2.90;;
50379;SDS011;37474;59.468;18.040;2023-05-10T10:41:55;6.57;;;2.77;;
50379;SDS011;37474;59.468;18.040;2023-05-10T10:44:24;4.70;;;2.40;;
50379;SDS011;37474;59.468;18.040;2023-05-10T10:47:00;5.35;;;2.45;;
50379;SDS011;37474;59.468;18.040;2023-05-10T10:49:32;6.07;;;2.85;;
50379;SDS011;37474;59.468;18.040;2023-05-10T10:52:15;6.20;;;2.55;;
50379;SDS011;37474;59.468;18.040;2023-05-10T10:54:52;5.50;;;2.70;;
50379;SDS011;37474;59.468;18.040;2023-05-10T10:57:25;5.88;;;2.42;;
50379;SDS011;37474;59.468;18.040;2023-05-10T11:02:48;5.88;;;2.65;;
50379;SDS011;37474;59.468;18.040;2023-05-10T11:05:23;8.02;;;2.75;;
50379;SDS011;37474;59.468;18.040;2023-05-10T11:07:54;5.45;;;2.40;;
50379;SDS011;37474;59.468;18.040;2023-05-10T11:10:23;8.68;;;2.53;;
50379;SDS011;37474;59.468;18.040;2023-05-10T11:12:53;6.60;;;2.53;;
50379;SDS011;37474;59.468;18.040;2023-05-10T11:15:30;5.72;;;2.72;;
50379;SDS011;37474;59.468;18.040;2023-05-10T11:17:59;5.90;;;2.65;;
50379;SDS011;37474;59.468;18.040;2023-05-10T11:20:43;5.00;;;2.50;;
50379;SDS011;37474;59.468;18.040;2023-05-10T11:23:14;6.03;;;2.35;;
50379;SDS011;37474;59.468;18.040;2023-05-10T11:25:44;4.65;;;2.42;;
50379;SDS011;37474;59.468;18.040;2023-05-10T11:28:13;6.05;;;2.40;;
50379;SDS011;37474;59.468;18.040;2023-05-10T11:30:43;9.10;;;2.67;;
50379;SDS011;37474;59.468;18.040;2023-05-10T11:33:15;5.05;;;2.65;;
50379;SDS011;37474;59.468;18.040;2023-05-10T11:35:44;7.32;;;2.38;;
50379;SDS011;37474;59.468;18.040;2023-05-10T11:38:13;6.43;;;2.67;;
50379;SDS011;37474;59.468;18.040;2023-05-10T11:40:41;9.17;;;2.70;;
50379;SDS011;37474;59.468;18.040;2023-05-10T11:43:10;9.55;;;2.58;;
50379;SDS011;37474;59.468;18.040;2023-05-10T11:45:39;10.63;;;2.58;;
50379;SDS011;37474;59.468;18.040;2023-05-10T11:48:08;4.65;;;2.60;;
50379;SDS011;37474;59.468;18.040;2023-05-10T11:50:37;7.20;;;2.78;;
50379;SDS011;37474;59.468;18.040;2023-05-10T11:53:05;4.40;;;2.60;;
50379;SDS011;37474;59.468;18.040;2023-05-10T11:55:34;5.25;;;2.70;;
50379;SDS011;37474;59.468;18.040;2023-05-10T11:58:03;21.92;;;3.20;;
50379;SDS011;37474;59.468;18.040;2023-05-10T12:00:31;3.67;;;2.53;;
50379;SDS011;37474;59.468;18.040;2023-05-10T12:03:00;5.20;;;2.50;;
50379;SDS011;37474;59.468;18.040;2023-05-10T12:05:31;7.30;;;2.60;;
50379;SDS011;37474;59.468;18.040;2023-05-10T12:08:12;6.18;;;2.67;;
50379;SDS011;37474;59.468;18.040;2023-05-10T12:10:43;6.80;;;2.75;;
50379;SDS011;37474;59.468;18.040;2023-05-10T12:13:11;7.28;;;2.35;;
50379;SDS011;37474;59.468;18.040;2023-05-10T12:15:41;6.28;;;2.88;;
50379;SDS011;37474;59.468;18.040;2023-05-10T12:18:11;6.82;;;2.50;;
50379;SDS011;37474;59.468;18.040;2023-05-10T12:20:40;4.43;;;2.50;;
50379;SDS011;37474;59.468;18.040;2023-05-10T12:23:09;5.35;;;2.63;;
50379;SDS011;37474;59.468;18.040;2023-05-10T12:25:37;9.65;;;2.67;;
50379;SDS011;37474;59.468;18.040;2023-05-10T12:28:08;8.82;;;2.85;;
50379;SDS011;37474;59.468;18.040;2023-05-10T12:30:37;5.65;;;2.60;;
50379;SDS011;37474;59.468;18.040;2023-05-10T12:33:09;10.93;;;2.67;;
50379;SDS011;37474;59.468;18.040;2023-05-10T12:35:46;5.20;;;2.60;;
50379;SDS011;37474;59.468;18.040;2023-05-10T12:38:24;8.18;;;2.83;;
50379;SDS011;37474;59.468;18.040;2023-05-10T12:40:53;6.78;;;2.67;;
50379;SDS011;37474;59.468;18.040;2023-05-10T12:43:22;4.97;;;2.25;;
50379;SDS011;37474;59.468;18.040;2023-05-10T12:45:50;8.50;;;2.30;;
50379;SDS011;37474;59.468;18.040;2023-05-10T12:48:19;7.28;;;2.28;;
50379;SDS011;37474;59.468;18.040;2023-05-10T12:50:47;8.65;;;2.80;;
50379;SDS011;37474;59.468;18.040;2023-05-10T12:53:15;4.70;;;2.47;;
50379;SDS011;37474;59.468;18.040;2023-05-10T12:55:44;10.27;;;2.47;;
50379;SDS011;37474;59.468;18.040;2023-05-10T12:58:12;9.27;;;2.50;;
50379;SDS011;37474;59.468;18.040;2023-05-10T13:01:01;5.07;;;2.35;;
50379;SDS011;37474;59.468;18.040;2023-05-10T13:03:30;3.40;;;2.00;;
50379;SDS011;37474;59.468;18.040;2023-05-10T13:05:58;6.15;;;2.28;;
50379;SDS011;37474;59.468;18.040;2023-05-10T13:08:26;8.18;;;2.55;;
50379;SDS011;37474;59.468;18.040;2023-05-10T13:11:00;5.22;;;2.75;;
50379;SDS011;37474;59.468;18.040;2023-05-10T13:13:28;3.38;;;2.38;;
50379;SDS011;37474;59.468;18.040;2023-05-10T13:15:56;4.15;;;2.05;;
50379;SDS011;37474;59.468;18.040;2023-05-10T13:18:25;8.27;;;2.75;;
50379;SDS011;37474;59.468;18.040;2023-05-10T13:20:53;3.85;;;2.20;;
50379;SDS011;37474;59.468;18.040;2023-05-10T13:23:22;6.32;;;2.50;;
50379;SDS011;37474;59.468;18.040;2023-05-10T13:25:50;5.45;;;2.22;;
50379;SDS011;37474;59.468;18.040;2023-05-10T13:28:18;9.30;;;2.60;;
50379;SDS011;37474;59.468;18.040;2023-05-10T13:30:46;7.60;;;2.47;;
50379;SDS011;37474;59.468;18.040;2023-05-10T13:33:14;4.43;;;2.08;;
50379;SDS011;37474;59.468;18.040;2023-05-10T13:35:43;6.90;;;2.22;;
50379;SDS011;37474;59.468;18.040;2023-05-10T13:38:12;6.80;;;2.20;;
50379;SDS011;37474;59.468;18.040;2023-05-10T13:40:40;4.85;;;2.08;;
50379;SDS011;37474;59.468;18.040;2023-05-10T13:43:08;6.03;;;2.30;;
50379;SDS011;37474;59.468;18.040;2023-05-10T13:45:36;5.50;;;2.28;;
50379;SDS011;37474;59.468;18.040;2023-05-10T13:48:05;8.63;;;2.38;;
50379;SDS011;37474;59.468;18.040;2023-05-10T13:50:33;9.45;;;2.47;;
50379;SDS011;37474;59.468;18.040;2023-05-10T13:53:02;6.78;;;2.22;;
50379;SDS011;37474;59.468;18.040;2023-05-10T13:57:59;6.53;;;2.47;;
50379;SDS011;37474;59.468;18.040;2023-05-10T14:00:28;3.35;;;1.98;;
50379;SDS011;37474;59.468;18.040;2023-05-10T14:02:56;4.80;;;2.13;;
50379;SDS011;37474;59.468;18.040;2023-05-10T14:05:24;3.72;;;2.17;;
50379;SDS011;37474;59.468;18.040;2023-05-10T14:07:52;4.55;;;2.13;;
50379;SDS011;37474;59.468;18.040;2023-05-10T14:10:21;4.63;;;2.35;;
50379;SDS011;37474;59.468;18.040;2023-05-10T14:12:50;5.80;;;2.00;;
50379;SDS011;37474;59.468;18.040;2023-05-10T14:15:18;6.55;;;2.08;;
50379;SDS011;37474;59.468;18.040;2023-05-10T14:17:46;4.85;;;2.33;;
50379;SDS011;37474;59.468;18.040;2023-05-10T14:20:14;7.82;;;2.40;;
50379;SDS011;37474;59.468;18.040;2023-05-10T14:22:42;5.30;;;2.28;;
50379;SDS011;37474;59.468;18.040;2023-05-10T14:25:10;5.20;;;2.30;;
50379;SDS011;37474;59.468;18.040;2023-05-10T14:27:40;7.43;;;2.05;;
50379;SDS011;37474;59.468;18.040;2023-05-10T14:30:08;8.18;;;2.28;;
50379;SDS011;37474;59.468;18.040;2023-05-10T14:32:37;7.00;;;2.33;;
50379;SDS011;37474;59.468;18.040;2023-05-10T14:35:05;6.18;;;2.35;;
50379;SDS011;37474;59.468;18.040;2023-05-10T14:37:38;6.28;;;2.10;;
50379;SDS011;37474;59.468;18.040;2023-05-10T14:40:06;8.32;;;2.55;;
50379;SDS011;37474;59.468;18.040;2023-05-10T14:42:35;5.22;;;2.35;;
50379;SDS011;37474;59.468;18.040;2023-05-10T14:45:05;7.75;;;2.10;;
50379;SDS011;37474;59.468;18.040;2023-05-10T14:47:34;3.33;;;2.20;;
50379;SDS011;37474;59.468;18.040;2023-05-10T14:50:02;6.43;;;2.00;;
50379;SDS011;37474;59.468;18.040;2023-05-10T14:52:31;3.47;;;1.98;;
50379;SDS011;37474;59.468;18.040;2023-05-10T14:54:59;4.78;;;2.22;;
50379;SDS011;37474;59.468;18.040;2023-05-10T14:57:27;4.47;;;1.88;;
50379;SDS011;37474;59.468;18.040;2023-05-10T14:59:56;5.22;;;2.30;;
50379;SDS011;37474;59.468;18.040;2023-05-10T15:02:25;4.32;;;1.90;;
50379;SDS011;37474;59.468;18.040;2023-05-10T15:04:54;4.47;;;2.00;;
50379;SDS011;37474;59.468;18.040;2023-05-10T15:07:24;4.45;;;2.40;;